»·PEaware :: N1776 KSNA-KSAC

N1776 :: KSNA-KSAC

FLIGHT INFORMATION

Flight Status: Arrived
Operator: Privately registered:
United States
More flights under this callsign
Pilot: Carl E. (19279)
Aircraft: PILATUS PC-12 EAGLE
(PC12)
More flights by this aircraft type
Origin: KSNA John Wayne-Orange Co
United States
Destination: KSAC Sacramento Executive
United States
More flights between these airports :: More routes between these airports
Route: +MUSEL8 SLI POM TTE V459 LIN SAC
File this flight plan on PilotEdge
Remarks: Request ILS
Altitude:
(Current/Filed)
16,000ft
Speed:
(Current/Filed)
200kts
Departed: 03-Sep-18 11:39 AM
Arrived: 03-Sep-18 02:08 PM
Distance/Time
Traveled:
339nm/2:29
Distance/Time
To Go:
Arrived

Flight Plot

Page will automatically refresh every two minutes.

Flight plan parsing failed; only flown route is shown


Map Options




Map Legend


Flown Route
Filed Route
Departure Airport
Arrival Airport
Navaid (VOR, NDB)
Fix

Horizontal Profiles

Position Reports

Time Latitude Longitude Heading Altitude Ground
Speed
03-Sep-18 10:22 33.674467 -117.871765 127 60ft 0kts
03-Sep-18 10:23 33.674467 -117.871765 127 60ft 0kts
03-Sep-18 10:24 33.674467 -117.871765 127 60ft 0kts
03-Sep-18 10:25 33.674467 -117.871765 127 60ft 0kts
03-Sep-18 10:26 33.674467 -117.871765 127 60ft 0kts
03-Sep-18 10:27 33.674467 -117.871765 127 60ft 0kts
03-Sep-18 10:28 33.674467 -117.871765 127 60ft 0kts
03-Sep-18 10:29 33.674467 -117.871765 127 60ft 0kts
03-Sep-18 10:30 33.674467 -117.871765 127 60ft 0kts
03-Sep-18 10:31 33.674467 -117.871765 127 60ft 0kts
03-Sep-18 10:32 33.674467 -117.871765 127 60ft 0kts
03-Sep-18 10:33 33.674467 -117.871765 127 60ft 0kts
03-Sep-18 10:34 33.674467 -117.871765 127 60ft 0kts
03-Sep-18 10:35 33.674467 -117.871765 127 60ft 0kts
03-Sep-18 10:36 33.674467 -117.871765 127 60ft 0kts
03-Sep-18 10:37 33.674467 -117.871765 127 60ft 0kts
03-Sep-18 10:38 33.674467 -117.871765 127 60ft 0kts
03-Sep-18 10:39 33.674467 -117.871765 127 60ft 0kts
03-Sep-18 10:40 33.674467 -117.871765 127 60ft 0kts
03-Sep-18 10:41 33.674467 -117.871765 127 60ft 0kts
03-Sep-18 10:42 33.674467 -117.871765 127 60ft 0kts
03-Sep-18 10:43 33.674467 -117.871765 127 60ft 0kts
03-Sep-18 10:44 33.674467 -117.871765 127 60ft 0kts
03-Sep-18 10:45 33.674467 -117.871765 127 60ft 0kts
03-Sep-18 10:46 33.674467 -117.871765 127 60ft 0kts
03-Sep-18 10:47 33.674467 -117.871765 127 60ft 0kts
03-Sep-18 10:48 33.674467 -117.871765 127 60ft 0kts
03-Sep-18 10:49 33.674467 -117.871765 127 60ft 0kts
03-Sep-18 10:50 33.674467 -117.871765 127 60ft 0kts
03-Sep-18 10:51 33.674467 -117.871765 127 60ft 0kts
03-Sep-18 10:52 33.674467 -117.871765 127 60ft 0kts
03-Sep-18 10:53 33.674467 -117.871765 127 60ft 0kts
03-Sep-18 10:54 33.674467 -117.871765 127 60ft 0kts
03-Sep-18 10:55 33.674467 -117.871765 127 60ft 0kts
03-Sep-18 10:56 33.674467 -117.871765 127 60ft 0kts
03-Sep-18 10:57 33.674467 -117.871765 127 60ft 0kts
03-Sep-18 10:58 33.674467 -117.871765 127 60ft 0kts
03-Sep-18 10:59 33.674467 -117.871765 127 60ft 0kts
03-Sep-18 11:00 33.674467 -117.871765 127 60ft 0kts
03-Sep-18 11:02 33.674467 -117.871765 127 60ft 0kts
03-Sep-18 11:03 33.674467 -117.871765 127 60ft 0kts
03-Sep-18 11:04 33.674467 -117.871765 127 60ft 0kts
03-Sep-18 11:05 33.674467 -117.871765 127 60ft 0kts
03-Sep-18 11:06 33.674467 -117.871765 127 60ft 0kts
03-Sep-18 11:07 33.674467 -117.871765 127 60ft 0kts
03-Sep-18 11:08 33.674467 -117.871765 127 60ft 0kts
03-Sep-18 11:09 33.674467 -117.871765 127 60ft 0kts
03-Sep-18 11:10 33.674467 -117.871765 127 60ft 0kts
03-Sep-18 11:11 33.674467 -117.871765 127 60ft 0kts
03-Sep-18 11:12 33.674467 -117.871765 127 60ft 0kts
03-Sep-18 11:13 33.674467 -117.871765 127 60ft 0kts
03-Sep-18 11:14 33.674467 -117.871765 127 60ft 0kts
03-Sep-18 11:15 33.674467 -117.871765 127 60ft 0kts
03-Sep-18 11:16 33.674467 -117.871765 127 60ft 0kts
03-Sep-18 11:17 33.674467 -117.871765 127 60ft 0kts
03-Sep-18 11:18 33.674467 -117.871765 127 60ft 0kts
03-Sep-18 11:19 33.674467 -117.871765 127 60ft 0kts
03-Sep-18 11:20 33.674467 -117.871765 127 60ft 0kts
03-Sep-18 11:22 33.674467 -117.871765 127 60ft 0kts
03-Sep-18 11:23 33.674467 -117.871765 127 60ft 0kts
03-Sep-18 11:24 33.674467 -117.871765 127 60ft 0kts
03-Sep-18 11:25 33.674467 -117.871765 127 60ft 0kts
03-Sep-18 11:26 33.674467 -117.871765 127 60ft 0kts
03-Sep-18 11:27 33.674467 -117.871765 127 60ft 0kts
03-Sep-18 11:28 33.674467 -117.871765 127 60ft 0kts
03-Sep-18 11:29 33.674467 -117.871765 127 60ft 0kts
03-Sep-18 11:30 33.674467 -117.871765 127 60ft 0kts
03-Sep-18 11:31 33.674467 -117.871765 127 60ft 0kts
03-Sep-18 11:32 33.674467 -117.871765 127 60ft 0kts
03-Sep-18 11:33 33.674467 -117.871765 127 60ft 0kts
03-Sep-18 11:34 33.674467 -117.871765 127 60ft 0kts
03-Sep-18 11:35 33.674467 -117.871765 127 60ft 0kts
03-Sep-18 11:36 33.675006 -117.870756 29 60ft 12kts
03-Sep-18 11:37 33.677683 -117.869059 28 60ft 20kts
03-Sep-18 11:38 33.680619 -117.867386 27 60ft 12kts
03-Sep-18 11:39 33.681206 -117.866439 116 60ft 0kts
03-Sep-18 11:40 33.681082 -117.866126 117 60ft 12kts
03-Sep-18 11:41 33.673485 -117.870211 206 62ft 117kts
03-Sep-18 11:42 33.650224 -117.885003 205 954ft 155kts
03-Sep-18 11:43 33.622513 -117.894707 188 2328ft 156kts
03-Sep-18 11:44 33.594395 -117.902674 199 3533ft 164kts
03-Sep-18 11:45 33.566346 -117.914649 198 4498ft 180kts
03-Sep-18 11:46 33.534694 -117.928061 198 5385ft 189kts
03-Sep-18 11:47 33.503221 -117.941432 198 6536ft 183kts
03-Sep-18 11:48 33.475315 -117.959639 245 7702ft 179kts
03-Sep-18 11:48 33.483228 -117.986504 339 8704ft 166kts
03-Sep-18 11:50 33.519650 -117.992333 352 9825ft 178kts
03-Sep-18 11:51 33.553171 -117.999956 351 10705ft 188kts
03-Sep-18 11:51 33.582242 -118.006857 351 11435ft 193kts
03-Sep-18 11:52 33.616046 -118.014915 351 12214ft 200kts
03-Sep-18 11:54 33.656631 -118.024634 352 13101ft 204kts
03-Sep-18 11:54 33.681838 -118.030660 352 13642ft 206kts
03-Sep-18 11:55 33.717128 -118.039103 353 14395ft 207kts
03-Sep-18 11:56 33.753965 -118.047900 353 15005ft 215kts
03-Sep-18 11:58 33.798338 -118.041796 40 15022ft 226kts
03-Sep-18 11:58 33.825994 -118.016312 39 15016ft 236kts
03-Sep-18 11:59 33.861134 -117.984512 39 15012ft 241kts
03-Sep-18 12:00 33.897232 -117.951817 39 15010ft 243kts
03-Sep-18 12:01 33.931668 -117.920594 39 15009ft 244kts
03-Sep-18 12:02 33.966775 -117.888737 39 15018ft 247kts
03-Sep-18 12:03 34.002493 -117.856278 39 15028ft 250kts
03-Sep-18 12:04 34.039833 -117.822312 39 15038ft 250kts
03-Sep-18 12:05 34.075720 -117.789656 39 15045ft 250kts
03-Sep-18 12:06 34.106710 -117.749228 49 15026ft 249kts
03-Sep-18 12:07 34.137655 -117.707493 49 15021ft 249kts
03-Sep-18 12:08 34.169738 -117.664366 49 15016ft 249kts
03-Sep-18 12:09 34.201572 -117.621431 49 15011ft 249kts
03-Sep-18 12:10 34.232449 -117.579716 49 15007ft 249kts
03-Sep-18 12:11 34.274283 -117.561904 335 15037ft 268kts
03-Sep-18 12:12 34.316945 -117.598000 328 15027ft 271kts
03-Sep-18 12:13 34.359074 -117.633399 328 15038ft 270kts
03-Sep-18 12:14 34.402332 -117.669416 328 15047ft 270kts
03-Sep-18 12:15 34.444908 -117.704869 328 15046ft 270kts
03-Sep-18 12:16 34.487522 -117.740391 328 15045ft 270kts
03-Sep-18 12:17 34.530481 -117.776251 328 15045ft 271kts
03-Sep-18 12:18 34.574172 -117.812767 328 15044ft 272kts
03-Sep-18 12:19 34.617330 -117.848882 328 15036ft 273kts
03-Sep-18 12:20 34.660688 -117.885219 328 15031ft 273kts
03-Sep-18 12:21 34.703860 -117.921445 328 15028ft 273kts
03-Sep-18 12:22 34.747140 -117.957810 328 15030ft 273kts
03-Sep-18 12:23 34.790189 -117.994026 328 15034ft 273kts
03-Sep-18 12:24 34.832800 -118.029919 328 15038ft 273kts
03-Sep-18 12:25 34.875974 -118.066334 328 15042ft 273kts
03-Sep-18 12:26 34.919273 -118.102874 328 15046ft 273kts
03-Sep-18 12:27 34.962648 -118.139544 328 15052ft 273kts
03-Sep-18 12:28 35.004919 -118.175341 328 15066ft 272kts
03-Sep-18 12:29 35.042205 -118.217753 306 15091ft 275kts
03-Sep-18 12:30 35.073109 -118.272277 306 15108ft 275kts
03-Sep-18 12:31 35.110581 -118.314002 328 15124ft 270kts
03-Sep-18 12:32 35.154166 -118.350939 327 15129ft 271kts
03-Sep-18 12:33 35.197353 -118.388524 327 15129ft 272kts
03-Sep-18 12:34 35.241227 -118.426885 327 15129ft 272kts
03-Sep-18 12:35 35.284805 -118.465048 327 15129ft 272kts
03-Sep-18 12:36 35.328452 -118.503323 327 15129ft 272kts
03-Sep-18 12:37 35.371526 -118.541146 327 15129ft 272kts
03-Sep-18 12:38 35.415476 -118.579790 327 15120ft 272kts
03-Sep-18 12:39 35.459152 -118.618320 327 15541ft 258kts
03-Sep-18 12:40 35.498363 -118.652957 327 16056ft 252kts
03-Sep-18 12:41 35.539299 -118.688967 327 16034ft 264kts
03-Sep-18 12:42 35.581237 -118.726011 327 15993ft 269kts
03-Sep-18 12:43 35.623011 -118.762988 327 15966ft 271kts
03-Sep-18 12:44 35.664863 -118.800083 327 15954ft 272kts
03-Sep-18 12:45 35.707391 -118.837852 327 15953ft 271kts
03-Sep-18 12:46 35.749431 -118.875214 327 15954ft 270kts
03-Sep-18 12:47 35.792050 -118.913133 327 15957ft 268kts
03-Sep-18 12:48 35.834172 -118.950659 327 15960ft 266kts
03-Sep-18 12:49 35.876196 -118.988145 327 15961ft 264kts
03-Sep-18 12:50 35.917820 -119.024020 338 15956ft 259kts
03-Sep-18 12:51 35.964025 -119.045446 342 15961ft 256kts
03-Sep-18 12:52 36.010436 -119.067324 342 15961ft 255kts
03-Sep-18 12:53 36.057080 -119.089514 342 16014ft 253kts
03-Sep-18 12:54 36.101509 -119.110677 342 16016ft 254kts
03-Sep-18 12:55 36.143801 -119.130856 342 16019ft 255kts
03-Sep-18 12:56 36.188360 -119.152141 342 16019ft 255kts
03-Sep-18 12:57 36.234324 -119.174126 342 16019ft 255kts
03-Sep-18 12:58 36.279841 -119.195927 342 16019ft 255kts
03-Sep-18 12:59 36.325708 -119.217922 342 16019ft 255kts
03-Sep-18 13:00 36.371481 -119.239889 342 16019ft 255kts
03-Sep-18 13:01 36.416609 -119.261572 342 16019ft 255kts
03-Sep-18 13:02 36.461235 -119.283041 342 16018ft 255kts
03-Sep-18 13:03 36.507046 -119.305108 342 16018ft 255kts
03-Sep-18 13:04 36.552995 -119.327268 342 16018ft 255kts
03-Sep-18 13:05 36.598654 -119.349336 342 16018ft 255kts
03-Sep-18 13:07 36.644793 -119.371655 342 16000ft 256kts
03-Sep-18 13:08 36.689917 -119.393525 342 15999ft 256kts
03-Sep-18 13:09 36.735801 -119.415788 342 15999ft 256kts
03-Sep-18 13:10 36.781590 -119.438032 342 15999ft 256kts
03-Sep-18 13:11 36.827388 -119.460309 342 15999ft 256kts
03-Sep-18 13:12 36.873363 -119.482699 342 15999ft 256kts
03-Sep-18 13:13 36.919383 -119.505143 342 15999ft 256kts
03-Sep-18 13:14 36.964217 -119.527035 342 15999ft 256kts
03-Sep-18 13:15 37.010277 -119.549385 340 15997ft 254kts
03-Sep-18 13:16 37.055848 -119.571627 339 15996ft 251kts
03-Sep-18 13:17 37.100855 -119.593752 335 15996ft 250kts
03-Sep-18 13:18 37.132494 -119.634462 309 15999ft 250kts
03-Sep-18 13:19 37.163061 -119.679022 310 16001ft 251kts
03-Sep-18 13:20 37.193749 -119.722917 310 16001ft 251kts
03-Sep-18 13:21 37.225000 -119.767538 310 16001ft 251kts
03-Sep-18 13:22 37.254225 -119.809311 310 16000ft 251kts
03-Sep-18 13:23 37.285859 -119.854584 310 16000ft 251kts
03-Sep-18 13:24 37.325600 -119.886825 329 16004ft 252kts
03-Sep-18 13:25 37.363652 -119.924139 316 16001ft 252kts
03-Sep-18 13:26 37.398543 -119.966722 314 16000ft 251kts
03-Sep-18 13:27 37.431571 -120.008389 314 15999ft 251kts
03-Sep-18 13:28 37.461203 -120.045994 314 15997ft 251kts
03-Sep-18 13:29 37.494721 -120.088622 314 15996ft 251kts
03-Sep-18 13:30 37.526957 -120.129671 314 15997ft 251kts
03-Sep-18 13:31 37.560609 -120.172588 314 15999ft 251kts
03-Sep-18 13:32 37.594285 -120.215592 314 16004ft 251kts
03-Sep-18 13:33 37.627908 -120.258586 314 15898ft 254kts
03-Sep-18 13:34 37.661885 -120.302023 314 15463ft 249kts
03-Sep-18 13:35 37.695409 -120.345003 314 14898ft 248kts
03-Sep-18 13:36 37.728833 -120.387938 314 14260ft 248kts
03-Sep-18 13:37 37.763629 -120.432676 314 13682ft 250kts
03-Sep-18 13:38 37.793556 -120.480933 304 13064ft 249kts
03-Sep-18 13:39 37.820677 -120.531294 304 12362ft 248kts
03-Sep-18 13:40 37.847294 -120.580498 304 11543ft 239kts
03-Sep-18 13:41 37.872459 -120.627158 304 10580ft 235kts
03-Sep-18 13:42 37.896810 -120.672289 304 9426ft 226kts
03-Sep-18 13:43 37.920279 -120.715905 304 8208ft 219kts
03-Sep-18 13:44 37.942498 -120.757402 304 8043ft 205kts
03-Sep-18 13:45 37.965142 -120.798694 305 8041ft 205kts
03-Sep-18 13:46 37.986938 -120.840028 303 8040ft 207kts
03-Sep-18 13:47 38.010737 -120.884781 304 8041ft 231kts
03-Sep-18 13:48 38.035540 -120.931119 304 8039ft 233kts
03-Sep-18 13:49 38.060465 -120.977767 304 8041ft 227kts
03-Sep-18 13:50 38.088004 -121.019784 319 8041ft 226kts
03-Sep-18 13:51 38.121182 -121.053492 322 8040ft 226kts
03-Sep-18 13:52 38.154661 -121.088679 310 8040ft 226kts
03-Sep-18 13:53 38.188591 -121.122004 323 7923ft 226kts
03-Sep-18 13:54 38.223266 -121.153434 323 7360ft 214kts
03-Sep-18 13:55 38.255501 -121.182547 323 6242ft 199kts
03-Sep-18 13:56 38.285568 -121.209693 323 5254ft 185kts
03-Sep-18 13:56 38.308836 -121.230603 323 4559ft 174kts
03-Sep-18 13:57 38.335934 -121.254857 323 3711ft 166kts
03-Sep-18 13:59 38.363252 -121.285052 318 3014ft 152kts
03-Sep-18 14:00 38.387067 -121.315752 289 3026ft 195kts
03-Sep-18 14:00 38.396790 -121.351934 290 2845ft 168kts
03-Sep-18 14:01 38.414456 -121.381106 321 2472ft 139kts
03-Sep-18 14:02 38.439624 -121.404076 323 2152ft 164kts
03-Sep-18 14:04 38.467469 -121.429099 323 2015ft 149kts
03-Sep-18 14:04 38.487465 -121.443602 342 2016ft 143kts
03-Sep-18 14:05 38.511052 -121.451080 339 2016ft 124kts
03-Sep-18 14:06 38.532507 -121.452981 326 1960ft 106kts
03-Sep-18 14:07 38.533230 -121.473872 233 1051ft 97kts
03-Sep-18 14:08 38.520223 -121.488199 212 130ft 85kts
03-Sep-18 14:09 38.513553 -121.495258 271 27ft 18kts
03-Sep-18 14:10 38.513565 -121.495940 272 27ft 4kts
03-Sep-18 14:11 38.513438 -121.497177 287 27ft 0kts
03-Sep-18 14:12 38.513819 -121.497730 45 27ft 0kts
03-Sep-18 14:13 38.513819 -121.497731 45 27ft 0kts
03-Sep-18 14:14 38.513819 -121.497731 45 27ft 0kts
03-Sep-18 14:15 38.513819 -121.497731 45 27ft 0kts
03-Sep-18 14:16 38.513819 -121.497731 45 27ft 0kts
03-Sep-18 14:17 38.514338 -121.498038 285 27ft 10kts
03-Sep-18 14:18 38.514722 -121.499427 357 27ft 4kts
03-Sep-18 14:19 38.514801 -121.499367 49 27ft 0kts
03-Sep-18 14:20 38.514801 -121.499367 49 27ft 0kts
03-Sep-18 14:21 38.514801 -121.499367 49 27ft 0kts
03-Sep-18 14:22 38.514801 -121.499367 49 27ft 0kts

Navigation Log

Ident Type
Flight plan parsing failed, navigation log unavailable